createdAt,value
2019-02-06T00:01:17.973Z,91.59
2019-02-06T00:03:48.808Z,91.79
2019-02-06T00:06:19.689Z,91.86
2019-02-06T00:08:50.161Z,91.57
2019-02-06T00:11:21.008Z,91.47
2019-02-06T00:13:51.551Z,91.80
2019-02-06T00:16:22.112Z,91.51
2019-02-06T00:18:52.551Z,91.77
2019-02-06T00:21:23.317Z,91.82
2019-02-06T00:23:53.805Z,92.01
2019-02-06T00:26:24.207Z,92.68
2019-02-06T00:28:54.633Z,92.56
2019-02-06T00:31:25.454Z,92.17
2019-02-06T00:33:55.971Z,91.45
2019-02-06T00:36:26.391Z,91.98
2019-02-06T00:38:56.821Z,92.45
2019-02-06T00:41:27.227Z,92.22
2019-02-06T00:43:57.698Z,92.37
2019-02-06T00:46:28.545Z,92.42
2019-02-06T00:48:59.305Z,92.38
2019-02-06T00:51:29.975Z,93.01
2019-02-06T00:54:00.325Z,92.82
2019-02-06T00:56:30.924Z,92.69
2019-02-06T00:59:01.353Z,92.46
2019-02-06T01:01:32.222Z,92.14
2019-02-06T01:04:02.564Z,92.10
2019-02-06T01:06:33.093Z,91.95
2019-02-06T01:09:03.671Z,91.13
2019-02-06T01:11:34.807Z,91.52
2019-02-06T01:14:05.677Z,91.30
2019-02-06T01:16:36.188Z,91.81
2019-02-06T01:19:06.936Z,91.80
2019-02-06T01:21:37.721Z,91.67
2019-02-06T01:24:08.204Z,91.74
2019-02-06T01:26:38.627Z,91.70
2019-02-06T01:29:09.657Z,91.90
2019-02-06T01:31:40.239Z,91.28
2019-02-06T01:34:10.929Z,91.16
2019-02-06T01:36:41.328Z,91.21
2019-02-06T01:39:14.043Z,91.09
2019-02-06T01:41:44.628Z,91.29
2019-02-06T01:44:15.113Z,91.53
2019-02-06T01:46:45.513Z,91.36
2019-02-06T01:49:15.959Z,91.66
2019-02-06T01:51:46.369Z,91.30
2019-02-06T01:54:16.642Z,91.53
2019-02-06T01:56:47.088Z,91.70
2019-02-06T01:59:17.390Z,91.76
2019-02-06T02:01:48.094Z,91.88
2019-02-06T02:04:18.580Z,91.85
2019-02-06T02:06:50.688Z,91.67
2019-02-06T02:09:21.318Z,91.47
2019-02-06T02:11:51.851Z,91.73
2019-02-06T02:14:22.710Z,91.77
2019-02-06T02:16:53.059Z,91.85
2019-02-06T02:19:23.519Z,91.89
2019-02-06T02:21:53.886Z,91.54
2019-02-06T02:24:24.325Z,91.53
2019-02-06T02:26:54.788Z,91.47
2019-02-06T02:29:25.589Z,91.20
2019-02-06T02:31:56.252Z,91.38
2019-02-06T02:34:27.351Z,91.21
2019-02-06T02:36:57.950Z,91.47
2019-02-06T02:39:28.710Z,91.16
2019-02-06T02:41:59.626Z,91.06
2019-02-06T02:44:29.936Z,90.92
2019-02-06T02:47:00.630Z,90.77
2019-02-06T02:49:31.002Z,91.25
2019-02-06T02:52:01.395Z,91.35
2019-02-06T02:54:31.938Z,91.42
2019-02-06T02:57:02.537Z,91.46
2019-02-06T02:59:32.932Z,91.47
2019-02-06T03:02:12.819Z,91.45
2019-02-06T03:04:51.089Z,91.46
2019-02-06T03:07:21.940Z,91.16
2019-02-06T03:09:52.610Z,90.82
2019-02-06T03:12:23.259Z,90.71
2019-02-06T03:14:54.060Z,90.55
2019-02-06T03:17:24.465Z,90.88
2019-02-06T03:19:54.852Z,90.60
2019-02-06T03:22:25.248Z,90.51
2019-02-06T03:24:55.592Z,90.64
2019-02-06T03:27:26.284Z,91.21
2019-02-06T03:29:56.814Z,91.03
2019-02-06T03:32:27.617Z,90.90
2019-02-06T03:34:58.279Z,91.19
2019-02-06T03:37:29.032Z,90.74
2019-02-06T03:39:59.437Z,90.71
2019-02-06T03:42:30.060Z,90.58
2019-02-06T03:45:00.557Z,90.40
2019-02-06T03:47:31.297Z,90.55
2019-02-06T03:50:01.714Z,90.25
2019-02-06T03:52:32.120Z,90.61
2019-02-06T03:55:02.578Z,90.62
2019-02-06T03:57:32.960Z,91.09
2019-02-06T04:00:03.407Z,90.79
2019-02-06T04:02:34.163Z,90.56
2019-02-06T04:05:05.322Z,90.88
2019-02-06T04:07:35.857Z,90.59
2019-02-06T04:10:08.019Z,90.60
2019-02-06T04:12:38.416Z,90.76
2019-02-06T04:15:09.972Z,90.60
2019-02-06T04:17:40.437Z,91.10
2019-02-06T04:20:11.978Z,90.86
2019-02-06T04:22:42.558Z,90.67
2019-02-06T04:25:14.213Z,90.58
2019-02-06T04:27:44.701Z,90.43
2019-02-06T04:30:16.118Z,90.19
2019-02-06T04:32:46.890Z,90.65
2019-02-06T04:35:17.444Z,90.65
2019-02-06T04:37:48.058Z,90.66
2019-02-06T04:40:19.734Z,90.63
2019-02-06T04:42:50.775Z,90.10
2019-02-06T04:45:21.242Z,90.13
2019-02-06T04:47:51.523Z,90.19
2019-02-06T04:50:21.982Z,90.20
2019-02-06T04:52:52.404Z,90.46
2019-02-06T04:55:22.869Z,90.41
2019-02-06T04:57:53.244Z,90.58
2019-02-06T05:00:25.719Z,90.66
2019-02-06T05:02:56.203Z,90.54
2019-02-06T05:05:26.639Z,90.50
2019-02-06T05:07:56.964Z,90.54
2019-02-06T05:10:27.769Z,90.50
2019-02-06T05:12:58.148Z,90.75
2019-02-06T05:15:29.375Z,90.93
2019-02-06T05:17:59.716Z,90.92
2019-02-06T05:20:39.140Z,91.20
2019-02-06T05:23:10.978Z,91.17
2019-02-06T05:25:41.563Z,91.34
2019-02-06T05:28:11.922Z,91.08
2019-02-06T05:30:42.338Z,91.03
2019-02-06T05:33:12.677Z,91.06
2019-02-06T05:35:43.158Z,90.75
2019-02-06T05:38:13.466Z,90.87
2019-02-06T05:40:44.031Z,90.89
2019-02-06T05:43:14.413Z,90.88
2019-02-06T05:45:45.087Z,90.87
2019-02-06T05:48:15.934Z,90.54
2019-02-06T05:50:46.417Z,90.76
2019-02-06T05:53:17.162Z,90.69
2019-02-06T05:55:47.671Z,90.07
2019-02-06T05:58:18.032Z,90.29
2019-02-06T06:00:49.930Z,90.45
2019-02-06T06:03:20.387Z,90.73
2019-02-06T06:05:51.553Z,90.75
2019-02-06T06:08:22.004Z,90.60
2019-02-06T06:10:52.485Z,90.41
2019-02-06T06:13:22.983Z,90.54
2019-02-06T06:15:53.728Z,90.66
2019-02-06T06:18:24.463Z,91.11
2019-02-06T06:20:55.304Z,91.23
2019-02-06T06:23:25.810Z,91.21
2019-02-06T06:25:56.215Z,91.37
2019-02-06T06:28:26.683Z,91.37
2019-02-06T06:30:57.627Z,91.47
2019-02-06T06:33:27.985Z,91.29
2019-02-06T06:35:58.474Z,91.20
2019-02-06T06:38:29.385Z,91.26
2019-02-06T06:40:59.935Z,90.95
2019-02-06T06:43:30.454Z,90.48
2019-02-06T06:46:01.243Z,90.63
2019-02-06T06:48:32.243Z,90.41
2019-02-06T06:51:02.721Z,90.38
2019-02-06T06:53:33.549Z,90.78
2019-02-06T06:56:04.050Z,90.77
2019-02-06T06:58:34.628Z,90.72
2019-02-06T07:01:05.219Z,90.81
2019-02-06T07:03:35.466Z,90.65
2019-02-06T07:06:06.314Z,90.36
2019-02-06T07:08:37.084Z,89.55
2019-02-06T07:11:07.586Z,89.49
2019-02-06T07:13:37.810Z,89.60
2019-02-06T07:16:09.942Z,89.59
2019-02-06T07:18:40.285Z,89.23
2019-02-06T07:21:10.732Z,89.22
2019-02-06T07:23:41.602Z,89.22
2019-02-06T07:26:12.210Z,89.06
2019-02-06T07:28:42.411Z,89.00
2019-02-06T07:31:12.731Z,89.27
2019-02-06T07:33:43.516Z,89.13
2019-02-06T07:36:13.882Z,88.72
2019-02-06T07:38:44.241Z,88.28
2019-02-06T07:41:14.661Z,88.81
2019-02-06T07:43:45.353Z,88.86
2019-02-06T07:46:15.764Z,88.90
2019-02-06T07:48:46.166Z,88.88
2019-02-06T07:51:16.423Z,88.55
2019-02-06T07:53:47.021Z,88.33
2019-02-06T07:56:17.422Z,88.19
2019-02-06T07:58:50.689Z,88.23
2019-02-06T08:01:20.068Z,88.28
2019-02-06T08:03:50.448Z,88.28
2019-02-06T08:06:20.984Z,88.67
2019-02-06T08:08:51.485Z,88.41
2019-02-06T08:11:22.356Z,88.69
2019-02-06T08:13:52.748Z,87.86
2019-02-06T08:16:23.513Z,87.49
2019-02-06T08:18:54.272Z,87.56
2019-02-06T08:21:24.508Z,87.69
2019-02-06T08:23:55.176Z,88.29
2019-02-06T08:26:26.001Z,88.05
2019-02-06T08:28:56.720Z,87.82
2019-02-06T08:31:27.073Z,87.61
2019-02-06T08:33:57.595Z,87.12
2019-02-06T08:36:28.035Z,86.54
2019-02-06T08:38:58.663Z,85.74
2019-02-06T08:41:28.972Z,85.43
2019-02-06T08:44:01.749Z,85.23
2019-02-06T08:46:31.367Z,85.40
2019-02-06T08:49:02.077Z,85.66
2019-02-06T08:51:32.445Z,85.75
2019-02-06T08:54:02.616Z,85.44
2019-02-06T08:56:33.752Z,84.80
2019-02-06T08:59:05.010Z,84.85
2019-02-06T09:01:35.879Z,84.43
2019-02-06T09:04:06.278Z,84.39
2019-02-06T09:06:36.878Z,84.44
2019-02-06T09:09:12.214Z,84.45
2019-02-06T09:11:42.681Z,84.38
2019-02-06T09:14:13.110Z,84.15
2019-02-06T09:16:43.780Z,84.12
2019-02-06T09:19:14.443Z,83.67
2019-02-06T09:21:44.781Z,84.13
2019-02-06T09:24:15.961Z,84.49
2019-02-06T09:26:46.679Z,83.75
2019-02-06T09:29:17.190Z,82.96
2019-02-06T09:31:47.537Z,82.30
2019-02-06T09:34:18.080Z,81.82
2019-02-06T09:36:48.384Z,81.31
2019-02-06T09:39:18.786Z,81.96
2019-02-06T09:41:49.408Z,82.45
2019-02-06T09:44:19.843Z,82.98
2019-02-06T09:46:50.178Z,83.02
2019-02-06T09:49:20.531Z,83.25
2019-02-06T09:51:50.904Z,82.70
2019-02-06T09:54:21.483Z,83.79
2019-02-06T09:56:53.012Z,83.26
2019-02-06T09:59:23.227Z,82.94
2019-02-06T10:01:54.184Z,82.24
2019-02-06T10:04:24.605Z,82.21
2019-02-06T10:06:54.999Z,82.33
2019-02-06T10:09:25.263Z,82.62
2019-02-06T10:11:55.491Z,82.91
2019-02-06T10:14:26.219Z,82.97
2019-02-06T10:16:56.843Z,82.57
2019-02-06T10:19:27.163Z,82.23
2019-02-06T10:21:57.698Z,81.93
2019-02-06T10:24:27.906Z,82.46
2019-02-06T10:26:58.318Z,82.80
2019-02-06T10:29:28.672Z,82.89
2019-02-06T10:31:59.504Z,81.46
2019-02-06T10:34:29.878Z,81.81
2019-02-06T10:37:00.219Z,81.36
2019-02-06T10:39:34.596Z,81.26
2019-02-06T10:42:02.653Z,81.74
2019-02-06T10:44:33.292Z,81.87
2019-02-06T10:47:03.778Z,81.45
2019-02-06T10:49:34.389Z,81.83
2019-02-06T10:52:04.853Z,81.67
2019-02-06T10:54:35.091Z,81.25
2019-02-06T10:57:05.739Z,80.12
2019-02-06T10:59:35.933Z,81.58
2019-02-06T11:02:07.421Z,80.71
2019-02-06T11:04:37.749Z,81.25
2019-02-06T11:07:08.374Z,80.76
2019-02-06T11:09:46.180Z,80.60
2019-02-06T11:12:11.335Z,80.51
2019-02-06T11:14:41.841Z,79.30
2019-02-06T11:17:12.169Z,80.41
2019-02-06T11:19:43.298Z,81.02
2019-02-06T11:22:13.761Z,81.25
2019-02-06T11:24:44.155Z,80.87
2019-02-06T11:27:15.145Z,81.20
2019-02-06T11:29:48.238Z,81.26
2019-02-06T11:32:17.552Z,81.12
2019-02-06T11:34:47.886Z,81.33
2019-02-06T11:37:18.209Z,80.88
2019-02-06T11:39:57.590Z,80.55
2019-02-06T11:42:20.967Z,80.41
2019-02-06T11:44:51.419Z,81.01
2019-02-06T11:47:22.097Z,80.41
2019-02-06T11:49:54.856Z,80.79
2019-02-06T11:52:26.147Z,80.89
2019-02-06T11:54:56.612Z,79.90
2019-02-06T11:57:27.054Z,79.84
2019-02-06T11:59:57.701Z,78.66
2019-02-06T12:02:36.961Z,78.87
2019-02-06T12:05:00.320Z,81.44
2019-02-06T12:07:30.806Z,80.79
2019-02-06T12:10:09.434Z,79.54
2019-02-06T12:12:33.258Z,80.37
2019-02-06T12:15:03.676Z,81.55
2019-02-06T12:17:34.156Z,81.47
2019-02-06T12:20:07.238Z,81.16
2019-02-06T12:22:37.984Z,81.20
2019-02-06T12:25:09.896Z,80.70
2019-02-06T12:27:40.377Z,81.15
2019-02-06T12:30:27.478Z,80.10
2019-02-06T12:32:58.070Z,79.44
2019-02-06T12:35:28.914Z,80.46
2019-02-06T12:37:59.480Z,80.12
2019-02-06T12:40:31.083Z,80.54
2019-02-06T12:43:01.572Z,80.83
2019-02-06T12:45:32.034Z,81.87
2019-02-06T12:48:02.268Z,80.91
2019-02-06T12:50:32.677Z,80.65
2019-02-06T12:53:03.340Z,82.03
2019-02-06T12:55:35.727Z,81.50
2019-02-06T12:58:07.281Z,81.25
2019-02-06T13:00:39.876Z,81.94
2019-02-06T13:03:10.645Z,81.97
2019-02-06T13:05:41.183Z,81.34
2019-02-06T13:08:11.601Z,81.70
2019-02-06T13:10:42.196Z,82.00
2019-02-06T13:13:12.613Z,80.87
2019-02-06T13:15:43.095Z,81.98
2019-02-06T13:18:13.305Z,82.22
2019-02-06T13:20:43.684Z,82.78
2019-02-06T13:23:14.003Z,82.04
2019-02-06T13:25:44.328Z,81.51
2019-02-06T13:28:15.332Z,82.08
2019-02-06T13:30:45.747Z,81.82
2019-02-06T13:33:16.129Z,81.32
2019-02-06T13:35:46.807Z,81.31
2019-02-06T13:38:17.244Z,82.59
2019-02-06T13:40:47.717Z,81.61
2019-02-06T13:43:18.040Z,81.78
2019-02-06T13:45:49.400Z,81.99
2019-02-06T13:48:19.859Z,82.03
2019-02-06T13:50:50.342Z,82.42
2019-02-06T13:53:20.724Z,82.94
2019-02-06T13:55:51.515Z,83.01
2019-02-06T13:58:22.255Z,83.57
2019-02-06T14:00:52.979Z,83.93
2019-02-06T14:03:23.260Z,84.10
2019-02-06T14:05:53.667Z,83.66
2019-02-06T14:08:24.045Z,84.17
2019-02-06T14:11:00.273Z,83.31
2019-02-06T14:13:26.525Z,83.79
2019-02-06T14:15:56.988Z,83.35
2019-02-06T14:18:27.481Z,83.90
2019-02-06T14:20:57.829Z,83.82
2019-02-06T14:23:48.443Z,84.44
2019-02-06T14:26:34.237Z,84.38
2019-02-06T14:30:08.595Z,84.80
2019-02-06T14:33:12.222Z,84.58
2019-02-06T14:36:55.434Z,84.91
2019-02-06T14:39:52.610Z,84.23
2019-02-06T14:42:49.965Z,84.60
2019-02-06T14:46:31.198Z,85.09
2019-02-06T14:49:43.748Z,85.68
2019-02-06T14:52:59.959Z,86.41
2019-02-06T14:56:02.860Z,85.97
2019-02-06T14:59:51.310Z,86.18
2019-02-06T15:03:01.508Z,86.55
2019-02-06T15:06:37.950Z,87.22
2019-02-06T15:10:04.717Z,87.32
2019-02-06T15:13:42.856Z,87.51
2019-02-06T15:17:08.494Z,87.01
2019-02-06T15:20:19.966Z,87.23
2019-02-06T15:24:01.583Z,87.34
2019-02-06T15:27:15.502Z,87.35
2019-02-06T15:30:39.223Z,87.91
2019-02-06T15:33:55.041Z,87.72
2019-02-06T15:37:04.491Z,88.52
2019-02-06T15:40:27.347Z,88.68
2019-02-06T15:43:43.523Z,88.12
2019-02-06T15:47:00.825Z,88.78
2019-02-06T15:50:03.821Z,88.88
2019-02-06T15:53:16.216Z,88.96
2019-02-06T15:56:52.435Z,89.22
2019-02-06T16:00:13.013Z,89.26
2019-02-06T16:03:24.252Z,89.20
2019-02-06T16:06:40.338Z,89.30
2019-02-06T16:09:51.430Z,89.82
2019-02-06T16:13:07.436Z,89.77
2019-02-06T16:16:31.554Z,89.95
2019-02-06T16:20:04.997Z,90.28
2019-02-06T16:22:57.261Z,90.22
2019-02-06T16:26:42.926Z,90.36
2019-02-06T16:30:12.894Z,90.31
2019-02-06T16:33:52.551Z,90.65
2019-02-06T16:37:21.941Z,90.83
2019-02-06T16:40:51.918Z,90.55
2019-02-06T16:44:21.446Z,90.35
2019-02-06T16:47:45.630Z,90.76
2019-02-06T16:51:01.930Z,90.34
2019-02-06T16:54:07.406Z,90.47
2019-02-06T16:57:39.590Z,90.75
2019-02-06T17:00:54.104Z,90.80
2019-02-06T17:04:17.087Z,90.64
2019-02-06T17:07:32.276Z,90.97
2019-02-06T17:11:39.148Z,90.54
2019-02-06T17:15:08.022Z,90.80
2019-02-06T17:18:09.343Z,90.60
2019-02-06T17:21:33.190Z,90.59
2019-02-06T17:24:47.291Z,90.74
2019-02-06T17:28:20.109Z,90.66
2019-02-06T17:31:55.833Z,90.91
2019-02-06T17:35:22.480Z,90.83
2019-02-06T17:38:50.748Z,90.47
2019-02-06T17:42:01.588Z,90.40
2019-02-06T17:45:17.987Z,90.83
2019-02-06T17:48:59.449Z,90.72
2019-02-06T17:52:27.016Z,90.74
2019-02-06T17:55:21.228Z,90.24
2019-02-06T17:57:55.300Z,90.34
2019-02-06T18:00:52.923Z,90.74
2019-02-06T18:03:23.906Z,90.50
2019-02-06T18:05:54.754Z,90.78
2019-02-06T18:08:25.129Z,90.74
2019-02-06T18:10:55.476Z,90.84
2019-02-06T18:13:25.793Z,90.63
2019-02-06T18:15:56.149Z,90.58
2019-02-06T18:18:27.007Z,90.32
2019-02-06T18:20:57.656Z,90.42
2019-02-06T18:23:28.023Z,90.43
2019-02-06T18:25:58.305Z,90.43
2019-02-06T18:28:28.604Z,90.44
2019-02-06T18:30:59.023Z,90.58
2019-02-06T18:33:30.940Z,90.73
2019-02-06T18:36:01.215Z,90.60
2019-02-06T18:38:32.244Z,90.64
2019-02-06T18:41:02.776Z,90.64
2019-02-06T18:43:33.191Z,90.74
2019-02-06T18:46:03.839Z,90.72
2019-02-06T18:48:34.299Z,90.55
2019-02-06T18:51:05.978Z,90.49
2019-02-06T18:53:36.251Z,90.31
2019-02-06T18:56:06.945Z,90.44
2019-02-06T18:58:37.372Z,90.27
2019-02-06T19:01:08.330Z,90.40
2019-02-06T19:03:43.118Z,89.99
2019-02-06T19:06:13.938Z,90.43
2019-02-06T19:08:44.371Z,90.75
2019-02-06T19:11:14.780Z,90.80
2019-02-06T19:13:45.066Z,90.69
2019-02-06T19:16:15.431Z,90.39
2019-02-06T19:18:45.715Z,90.47
2019-02-06T19:21:16.464Z,90.54
2019-02-06T19:23:47.175Z,90.60
2019-02-06T19:26:17.482Z,90.70
2019-02-06T19:28:47.688Z,90.54
2019-02-06T19:31:18.082Z,90.74
2019-02-06T19:33:48.405Z,90.48
2019-02-06T19:36:19.096Z,90.78
2019-02-06T19:38:49.341Z,90.84
2019-02-06T19:41:20.046Z,90.77
2019-02-06T19:43:50.791Z,90.71
2019-02-06T19:46:21.294Z,90.80
2019-02-06T19:48:51.908Z,90.82
2019-02-06T19:51:22.221Z,90.86
2019-02-06T19:53:52.524Z,90.61
2019-02-06T19:56:22.928Z,90.77
2019-02-06T19:58:53.272Z,91.10
2019-02-06T20:01:24.026Z,90.85
2019-02-06T20:03:54.246Z,90.79
2019-02-06T20:06:31.994Z,90.86
2019-02-06T20:09:11.507Z,91.22
2019-02-06T20:11:42.042Z,91.03
2019-02-06T20:14:12.397Z,91.12
2019-02-06T20:16:42.718Z,90.95
2019-02-06T20:19:13.403Z,90.85
2019-02-06T20:21:43.980Z,90.56
2019-02-06T20:24:14.403Z,91.06
2019-02-06T20:26:44.932Z,90.93
2019-02-06T20:29:15.320Z,90.76
2019-02-06T20:31:45.680Z,90.62
2019-02-06T20:34:15.909Z,90.19
2019-02-06T20:36:46.515Z,90.42
2019-02-06T20:39:16.920Z,90.43
2019-02-06T20:41:47.777Z,90.47
2019-02-06T20:44:18.116Z,90.64
2019-02-06T20:46:48.768Z,90.80
2019-02-06T20:49:19.575Z,90.69
2019-02-06T20:51:50.128Z,90.38
2019-02-06T20:54:20.389Z,90.93
2019-02-06T20:56:50.605Z,90.97
2019-02-06T20:59:20.807Z,90.69
2019-02-06T21:01:51.055Z,90.90
2019-02-06T21:04:21.498Z,90.92
2019-02-06T21:06:52.109Z,90.75
2019-02-06T21:09:22.685Z,90.51
2019-02-06T21:11:52.839Z,90.59
2019-02-06T21:14:22.966Z,90.66
2019-02-06T21:16:53.508Z,90.96
2019-02-06T21:19:24.205Z,90.57
2019-02-06T21:21:54.858Z,90.51
2019-02-06T21:24:25.070Z,90.16
2019-02-06T21:26:55.566Z,90.17
2019-02-06T21:29:25.856Z,90.34
2019-02-06T21:31:56.096Z,90.67
2019-02-06T21:34:26.406Z,90.81
2019-02-06T21:36:56.571Z,90.67
2019-02-06T21:39:26.835Z,90.70
2019-02-06T21:41:57.298Z,90.35
2019-02-06T21:44:27.664Z,90.80
2019-02-06T21:46:57.863Z,90.42
2019-02-06T21:49:28.603Z,90.37
2019-02-06T21:51:59.289Z,90.48
2019-02-06T21:54:29.964Z,90.44
2019-02-06T21:57:00.372Z,90.55
2019-02-06T21:59:30.709Z,90.47
2019-02-06T22:02:01.016Z,90.47
2019-02-06T22:04:31.162Z,90.45
2019-02-06T22:07:01.560Z,90.26
2019-02-06T22:09:32.100Z,90.30
2019-02-06T22:12:02.451Z,90.17
2019-02-06T22:14:56.428Z,90.46
2019-02-06T22:17:26.748Z,90.22
2019-02-06T22:19:57.332Z,90.24
2019-02-06T22:22:27.654Z,90.05
2019-02-06T22:24:58.272Z,90.45
2019-02-06T22:27:28.661Z,90.59
2019-02-06T22:29:59.179Z,90.68
2019-02-06T22:32:29.646Z,89.99
2019-02-06T22:35:00.197Z,90.06
2019-02-06T22:37:30.848Z,90.11
2019-02-06T22:40:01.512Z,90.04
2019-02-06T22:42:31.869Z,90.29
2019-02-06T22:45:02.257Z,90.55
2019-02-06T22:47:32.869Z,90.45
2019-02-06T22:50:03.309Z,90.68
2019-02-06T22:52:33.737Z,90.28
2019-02-06T22:55:04.836Z,90.26
2019-02-06T22:57:36.144Z,90.19
2019-02-06T23:00:46.855Z,90.23
2019-02-06T23:03:28.349Z,90.07
2019-02-06T23:05:58.820Z,90.44
2019-02-06T23:08:29.238Z,90.40
2019-02-06T23:10:59.923Z,90.42
2019-02-06T23:13:30.404Z,89.88
2019-02-06T23:16:00.821Z,90.01
2019-02-06T23:18:31.449Z,90.36
2019-02-06T23:21:02.097Z,90.74
2019-02-06T23:23:32.788Z,90.51
2019-02-06T23:26:03.274Z,90.45
2019-02-06T23:28:33.991Z,90.63
2019-02-06T23:31:04.422Z,90.67
2019-02-06T23:33:34.876Z,90.36
2019-02-06T23:36:06.054Z,90.69
2019-02-06T23:38:36.586Z,90.09
2019-02-06T23:41:07.037Z,90.27
2019-02-06T23:43:37.526Z,90.40
2019-02-06T23:46:08.479Z,90.22
2019-02-06T23:48:39.019Z,90.34
2019-02-06T23:51:09.719Z,90.27
2019-02-06T23:53:40.255Z,89.98
2019-02-06T23:56:10.742Z,89.47
2019-02-06T23:58:41.145Z,89.78
